Time;durP1;ratioP1;P1;durP2;ratioP2;P2;SDS_P1;SDS_P2;PMS_P1;PMS_P2;Temp;Humidity;BMP_temperature;BMP_pressure;BME280_temperature;BME280_humidity;BME280_pressure;Samples;Min_cycle;Max_cycle;Signal;HPM_P1;HPM_P2
2023/02/18 00:01:12;;;;;;;13.85;13.05;;;;;;;;;;4991627;28;20116;-58
2023/02/18 00:03:37;;;;;;;13.10;12.32;;;;;;;;;;4992686;28;20026;-58
2023/02/18 00:06:17;;;;;;;12.25;11.55;;;;;;;;;;4994009;28;20045;-58
2023/02/18 00:08:43;;;;;;;12.55;11.85;;;;;;;;;;4994719;28;20108;-58
2023/02/18 00:11:09;;;;;;;12.68;11.88;;;;;;;;;;4993730;28;20037;-58
2023/02/18 00:13:34;;;;;;;12.45;11.60;;;;;;;;;;4994425;28;20539;-58
2023/02/18 00:16:19;;;;;;;12.95;12.15;;;;;;;;;;4993252;28;20491;-58
2023/02/18 00:18:44;;;;;;;13.50;12.63;;;;;;;;;;4994424;28;20666;-58
2023/02/18 00:21:10;;;;;;;14.50;13.60;;;;;;;;;;4993880;28;20030;-58
2023/02/18 00:23:35;;;;;;;13.35;12.55;;;;;;;;;;4991172;28;20516;-57
2023/02/18 00:26:02;;;;;;;15.05;14.15;;;;;;;;;;4993920;28;20030;-58
2023/02/18 00:28:28;;;;;;;15.82;14.93;;;;;;;;;;4991966;28;20030;-57
2023/02/18 00:30:53;;;;;;;17.70;16.70;;;;;;;;;;4997427;28;20156;-58
2023/02/18 00:33:19;;;;;;;18.50;17.50;;;;;;;;;;4994767;28;20049;-59
2023/02/18 00:35:44;;;;;;;17.17;16.17;;;;;;;;;;4996145;28;20554;-57
2023/02/18 00:38:10;;;;;;;17.85;16.80;;;;;;;;;;4997993;28;20060;-57
2023/02/18 00:40:41;;;;;;;19.77;18.70;;;;;;;;;;4998624;28;20790;-57
2023/02/18 00:43:08;;;;;;;16.90;15.98;;;;;;;;;;4995738;28;20042;-57
2023/02/18 00:45:33;;;;;;;16.48;15.57;;;;;;;;;;4994191;28;20033;-58
2023/02/18 00:47:58;;;;;;;16.27;15.20;;;;;;;;;;4995748;28;20030;-57
2023/02/18 00:50:24;;;;;;;15.13;14.23;;;;;;;;;;4994838;28;20360;-57
2023/02/18 00:52:49;;;;;;;14.88;13.98;;;;;;;;;;4996733;28;20045;-58
2023/02/18 00:55:14;;;;;;;14.38;13.57;;;;;;;;;;4998096;28;20030;-58
2023/02/18 00:57:40;;;;;;;15.25;14.38;;;;;;;;;;4994543;28;20036;-57
2023/02/18 01:00:06;;;;;;;14.90;14.02;;;;;;;;;;4998243;28;20033;-58
2023/02/18 01:02:32;;;;;;;14.57;13.68;;;;;;;;;;4994185;28;20112;-58
2023/02/18 01:04:57;;;;;;;14.18;13.38;;;;;;;;;;4995670;28;20038;-59
2023/02/18 01:07:22;;;;;;;13.35;12.55;;;;;;;;;;4994971;28;20042;-58
2023/02/18 01:09:48;;;;;;;12.32;11.63;;;;;;;;;;4998370;28;20031;-58
2023/02/18 01:12:14;;;;;;;12.23;11.52;;;;;;;;;;4996378;28;20038;-58
2023/02/18 01:14:39;;;;;;;13.15;12.35;;;;;;;;;;4995555;28;20100;-57
2023/02/18 01:17:04;;;;;;;12.75;12.05;;;;;;;;;;4994985;28;20476;-57
2023/02/18 01:19:30;;;;;;;13.18;12.38;;;;;;;;;;4996174;28;20077;-58
2023/02/18 01:21:55;;;;;;;13.10;12.30;;;;;;;;;;4994730;28;20137;-58
2023/02/18 01:24:21;;;;;;;13.57;12.77;;;;;;;;;;4993744;28;20037;-57
2023/02/18 01:26:46;;;;;;;13.32;12.52;;;;;;;;;;4996018;28;20045;-57
2023/02/18 01:29:11;;;;;;;13.52;12.73;;;;;;;;;;4997158;28;20033;-57
2023/02/18 01:31:37;;;;;;;13.80;13.00;;;;;;;;;;4995054;28;20038;-57
2023/02/18 01:34:02;;;;;;;14.57;13.77;;;;;;;;;;4995163;28;20048;-59
2023/02/18 01:36:27;;;;;;;14.00;13.07;;;;;;;;;;4993991;28;20042;-58
2023/02/18 01:38:53;;;;;;;12.65;11.88;;;;;;;;;;4994162;28;20502;-57
2023/02/18 01:41:19;;;;;;;11.82;11.13;;;;;;;;;;4996304;28;20074;-58
2023/02/18 01:43:44;;;;;;;11.52;10.82;;;;;;;;;;4996094;28;20042;-57
2023/02/18 01:46:17;;;;;;;13.15;12.35;;;;;;;;;;4995964;28;20042;-57
2023/02/18 01:48:55;;;;;;;12.38;11.68;;;;;;;;;;4997049;28;20117;-58
2023/02/18 01:51:27;;;;;;;12.30;11.60;;;;;;;;;;4994742;28;20076;-58
2023/02/18 01:54:10;;;;;;;13.10;12.30;;;;;;;;;;4996439;28;20488;-58
2023/02/18 01:56:48;;;;;;;13.65;12.85;;;;;;;;;;4990992;28;20030;-57
2023/02/18 01:59:20;;;;;;;11.77;11.07;;;;;;;;;;4991933;28;20038;-57
2023/02/18 02:01:45;;;;;;;11.50;10.80;;;;;;;;;;4995836;28;20427;-57
2023/02/18 02:04:11;;;;;;;12.00;11.30;;;;;;;;;;4994890;28;20046;-59
2023/02/18 02:06:37;;;;;;;11.82;11.13;;;;;;;;;;4991471;28;20340;-59
2023/02/18 02:09:05;;;;;;;11.55;10.85;;;;;;;;;;4997168;28;20044;-57
2023/02/18 02:11:57;;;;;;;11.45;10.75;;;;;;;;;;4994485;28;20027;-58
2023/02/18 02:14:44;;;;;;;11.55;10.85;;;;;;;;;;4996146;28;20038;-51
2023/02/18 02:17:26;;;;;;;11.88;11.18;;;;;;;;;;5001897;28;20459;-50
2023/02/18 02:20:17;;;;;;;11.57;10.88;;;;;;;;;;4992286;28;20049;-50
2023/02/18 02:23:07;;;;;;;11.70;11.00;;;;;;;;;;4995665;28;20042;-50
2023/02/18 02:25:51;;;;;;;11.27;10.57;;;;;;;;;;4992933;28;20057;-50
2023/02/18 02:28:27;;;;;;;11.70;11.00;;;;;;;;;;4995696;28;20376;-48
2023/02/18 02:31:14;;;;;;;11.77;11.07;;;;;;;;;;4993998;28;20424;-49
2023/02/18 02:34:13;;;;;;;12.20;11.50;;;;;;;;;;4992689;28;20041;-55
2023/02/18 02:36:49;;;;;;;11.75;11.05;;;;;;;;;;4991308;28;20026;-55
2023/02/18 02:39:36;;;;;;;12.15;11.45;;;;;;;;;;4997979;28;20053;-57
2023/02/18 02:42:14;;;;;;;11.50;10.80;;;;;;;;;;4994706;28;20081;-57
2023/02/18 02:45:02;;;;;;;12.60;11.90;;;;;;;;;;4994423;28;20448;-57
2023/02/18 02:47:43;;;;;;;11.30;10.60;;;;;;;;;;4994435;28;20133;-57
2023/02/18 02:50:19;;;;;;;11.98;11.27;;;;;;;;;;4993482;28;20470;-53
2023/02/18 02:52:53;;;;;;;10.95;10.30;;;;;;;;;;4993854;28;20030;-50
2023/02/18 02:55:19;;;;;;;11.40;10.70;;;;;;;;;;4995476;28;20041;-51
2023/02/18 02:57:46;;;;;;;11.10;10.40;;;;;;;;;;4994957;28;20038;-52
2023/02/18 03:00:14;;;;;;;11.40;10.70;;;;;;;;;;4994765;28;20480;-51
2023/02/18 03:03:04;;;;;;;11.65;10.95;;;;;;;;;;4993988;28;20177;-49
2023/02/18 03:05:41;;;;;;;11.02;10.32;;;;;;;;;;4993129;28;20034;-51
2023/02/18 03:08:16;;;;;;;11.20;10.50;;;;;;;;;;4993713;28;20121;-57
2023/02/18 03:11:11;;;;;;;11.55;10.80;;;;;;;;;;4995395;28;20053;-58
2023/02/18 03:13:55;;;;;;;11.20;10.50;;;;;;;;;;4999756;28;20490;-59
2023/02/18 03:16:48;;;;;;;11.30;10.60;;;;;;;;;;4995911;28;20730;-58
2023/02/18 03:19:13;;;;;;;11.30;10.40;;;;;;;;;;4994928;28;20104;-58
2023/02/18 03:22:02;;;;;;;11.80;11.10;;;;;;;;;;4993248;28;20510;-58
2023/02/18 03:24:38;;;;;;;12.40;11.70;;;;;;;;;;4993201;28;20042;-58
2023/02/18 03:27:12;;;;;;;11.98;11.07;;;;;;;;;;4994986;28;20030;-58
2023/02/18 03:29:39;;;;;;;12.13;11.43;;;;;;;;;;4994453;28;20038;-58
2023/02/18 03:32:07;;;;;;;12.65;11.85;;;;;;;;;;4993042;28;20562;-58
2023/02/18 03:34:39;;;;;;;11.75;11.05;;;;;;;;;;4994881;28;20429;-53
2023/02/18 03:37:07;;;;;;;13.30;12.50;;;;;;;;;;4993891;28;20424;-51
2023/02/18 03:39:34;;;;;;;11.65;10.95;;;;;;;;;;4994404;28;20061;-47
2023/02/18 03:42:00;;;;;;;13.07;12.27;;;;;;;;;;4993364;28;20070;-47
2023/02/18 03:44:25;;;;;;;12.23;11.52;;;;;;;;;;4991425;28;20049;-46
2023/02/18 03:46:50;;;;;;;13.35;12.55;;;;;;;;;;4996232;28;20038;-49
2023/02/18 03:49:16;;;;;;;12.57;11.77;;;;;;;;;;4998531;28;20046;-51
2023/02/18 03:51:42;;;;;;;12.90;12.13;;;;;;;;;;4995067;28;20041;-49
2023/02/18 03:54:08;;;;;;;12.02;11.32;;;;;;;;;;4989359;28;20042;-48
2023/02/18 03:56:35;;;;;;;12.05;11.35;;;;;;;;;;4996332;28;20376;-53
2023/02/18 03:59:01;;;;;;;12.60;11.80;;;;;;;;;;4993174;28;20046;-49
2023/02/18 04:01:27;;;;;;;12.63;11.93;;;;;;;;;;4994947;28;20045;-50
2023/02/18 04:03:54;;;;;;;11.77;11.07;;;;;;;;;;4994341;28;20045;-52
2023/02/18 04:06:21;;;;;;;12.02;11.32;;;;;;;;;;4999410;28;20119;-51
2023/02/18 04:08:46;;;;;;;11.45;10.75;;;;;;;;;;5006525;28;20029;-49
2023/02/18 04:11:11;;;;;;;12.13;11.43;;;;;;;;;;4996542;28;20038;-48
2023/02/18 04:13:37;;;;;;;12.25;11.55;;;;;;;;;;4997797;28;20186;-50
2023/02/18 04:16:03;;;;;;;15.68;14.77;;;;;;;;;;4997584;28;20038;-50
2023/02/18 04:18:28;;;;;;;18.02;17.02;;;;;;;;;;4998565;28;20376;-50
2023/02/18 04:20:53;;;;;;;19.77;18.70;;;;;;;;;;4998112;28;20083;-49
2023/02/18 04:23:19;;;;;;;21.38;20.23;;;;;;;;;;4995959;28;20057;-48
2023/02/18 04:25:44;;;;;;;25.55;24.20;;;;;;;;;;4996020;28;20302;-50
2023/02/18 04:28:12;;;;;;;25.67;24.33;;;;;;;;;;4996719;28;20103;-48
2023/02/18 04:30:37;;;;;;;25.10;23.75;;;;;;;;;;4998099;28;20379;-48
2023/02/18 04:33:03;;;;;;;25.42;24.05;;;;;;;;;;5000203;28;20041;-52
2023/02/18 04:35:28;;;;;;;24.73;23.42;;;;;;;;;;4995372;28;20048;-48
2023/02/18 04:37:53;;;;;;;25.55;24.20;;;;;;;;;;4994644;28;20023;-47
2023/02/18 04:40:19;;;;;;;22.60;21.40;;;;;;;;;;4996254;28;20038;-52
2023/02/18 04:42:44;;;;;;;24.08;22.80;;;;;;;;;;4998509;28;20128;-48
2023/02/18 04:45:09;;;;;;;24.20;22.90;;;;;;;;;;4997292;28;20038;-57
2023/02/18 04:47:35;;;;;;;22.45;21.23;;;;;;;;;;4995702;28;20042;-57
2023/02/18 04:50:00;;;;;;;22.90;21.65;;;;;;;;;;4996487;28;20115;-58
2023/02/18 04:52:25;;;;;;;22.55;21.33;;;;;;;;;;4994520;28;20121;-57
2023/02/18 04:54:51;;;;;;;27.67;26.20;;;;;;;;;;4995318;28;20062;-56
2023/02/18 04:57:16;;;;;;;25.58;24.23;;;;;;;;;;4997097;28;20582;-56
2023/02/18 04:59:42;;;;;;;27.25;25.83;;;;;;;;;;4994806;28;20502;-56
2023/02/18 05:02:07;;;;;;;26.48;25.08;;;;;;;;;;4998112;28;20383;-56
2023/02/18 05:04:33;;;;;;;28.60;27.08;;;;;;;;;;4995452;28;20078;-56
2023/02/18 05:06:58;;;;;;;25.88;24.50;;;;;;;;;;4996532;28;20034;-56
2023/02/18 05:09:23;;;;;;;28.00;26.50;;;;;;;;;;4994326;28;20137;-57
2023/02/18 05:11:49;;;;;;;27.35;25.92;;;;;;;;;;4994279;28;20367;-56
2023/02/18 05:14:14;;;;;;;25.33;24.00;;;;;;;;;;4993973;28;20121;-54
2023/02/18 05:16:40;;;;;;;25.88;24.50;;;;;;;;;;4994122;28;20046;-54
2023/02/18 05:19:05;;;;;;;25.50;24.17;;;;;;;;;;4993422;28;20030;-56
2023/02/18 05:21:31;;;;;;;26.08;24.67;;;;;;;;;;4994771;28;20452;-56
2023/02/18 05:23:57;;;;;;;26.85;25.40;;;;;;;;;;4994535;28;20116;-55
2023/02/18 05:26:22;;;;;;;23.13;21.85;;;;;;;;;;4995633;28;20034;-54
2023/02/18 05:28:48;;;;;;;19.90;18.80;;;;;;;;;;4994899;28;20030;-49
2023/02/18 05:31:14;;;;;;;19.70;18.60;;;;;;;;;;5000954;28;20042;-47
2023/02/18 05:33:39;;;;;;;18.55;17.55;;;;;;;;;;4994109;28;20052;-51
2023/02/18 05:36:05;;;;;;;15.50;14.60;;;;;;;;;;4995358;28;20038;-51
2023/02/18 05:38:31;;;;;;;15.50;14.60;;;;;;;;;;4992814;28;20653;-50
2023/02/18 05:40:56;;;;;;;14.48;13.57;;;;;;;;;;4994647;28;20045;-49
2023/02/18 05:43:21;;;;;;;13.68;12.82;;;;;;;;;;4997685;28;20040;-51
2023/02/18 05:45:46;;;;;;;12.57;11.85;;;;;;;;;;4996553;28;20038;-48
2023/02/18 05:48:12;;;;;;;13.40;12.60;;;;;;;;;;4995319;28;20033;-50
2023/02/18 05:50:37;;;;;;;12.80;12.05;;;;;;;;;;4992315;28;20109;-49
2023/02/18 05:53:03;;;;;;;10.90;10.20;;;;;;;;;;4994432;28;20113;-48
2023/02/18 05:55:28;;;;;;;11.57;10.88;;;;;;;;;;4992838;28;20065;-49
2023/02/18 05:57:53;;;;;;;11.38;10.68;;;;;;;;;;4997230;28;20065;-49
2023/02/18 06:00:19;;;;;;;11.20;10.50;;;;;;;;;;4995597;28;20064;-49
2023/02/18 06:02:44;;;;;;;11.05;10.35;;;;;;;;;;4995612;28;20038;-50
2023/02/18 06:05:10;;;;;;;11.02;10.32;;;;;;;;;;4995621;28;20504;-49
2023/02/18 06:07:36;;;;;;;12.50;11.80;;;;;;;;;;4992711;28;20120;-52
2023/02/18 06:10:02;;;;;;;11.30;10.60;;;;;;;;;;4995754;28;20096;-53
2023/02/18 06:12:27;;;;;;;11.57;10.88;;;;;;;;;;4993830;28;20045;-55
2023/02/18 06:14:52;;;;;;;10.70;10.10;;;;;;;;;;4993794;28;20037;-52
2023/02/18 06:17:18;;;;;;;10.75;10.05;;;;;;;;;;4996053;28;20050;-54
2023/02/18 06:19:44;;;;;;;10.77;10.13;;;;;;;;;;4993763;28;20034;-55
2023/02/18 06:22:10;;;;;;;12.27;11.57;;;;;;;;;;4996502;28;20045;-50
2023/02/18 06:24:35;;;;;;;12.20;11.48;;;;;;;;;;4992385;28;20128;-54
2023/02/18 06:27:01;;;;;;;12.23;11.52;;;;;;;;;;4990720;28;20472;-52
2023/02/18 06:29:29;;;;;;;12.00;11.30;;;;;;;;;;4995905;28;20038;-53
2023/02/18 06:31:54;;;;;;;11.60;10.90;;;;;;;;;;4996224;28;20034;-54
2023/02/18 06:34:19;;;;;;;12.32;11.52;;;;;;;;;;4993310;28;20040;-53
2023/02/18 06:36:45;;;;;;;11.95;11.25;;;;;;;;;;4996016;28;20041;-52
2023/02/18 06:39:11;;;;;;;12.43;11.52;;;;;;;;;;4993957;28;20042;-52
2023/02/18 06:41:36;;;;;;;11.90;11.20;;;;;;;;;;4992919;28;20038;-53
2023/02/18 06:44:02;;;;;;;11.60;10.90;;;;;;;;;;4994067;28;20092;-55
2023/02/18 06:46:27;;;;;;;10.60;9.95;;;;;;;;;;4991013;28;20042;-54
2023/02/18 06:48:52;;;;;;;12.25;11.45;;;;;;;;;;4994844;28;20030;-53
2023/02/18 06:51:18;;;;;;;11.40;10.70;;;;;;;;;;4991943;28;20045;-55
2023/02/18 06:53:44;;;;;;;11.60;10.90;;;;;;;;;;4994745;28;20045;-55
2023/02/18 06:56:09;;;;;;;11.23;10.52;;;;;;;;;;4992695;28;20038;-54
2023/02/18 06:58:35;;;;;;;12.93;12.13;;;;;;;;;;4993247;28;20070;-55
2023/02/18 07:01:00;;;;;;;11.70;10.90;;;;;;;;;;4995756;28;20037;-54
2023/02/18 07:03:26;;;;;;;11.93;11.23;;;;;;;;;;4992247;28;20057;-54
2023/02/18 07:05:51;;;;;;;11.63;10.80;;;;;;;;;;4995812;28;20064;-54
2023/02/18 07:08:17;;;;;;;11.82;11.13;;;;;;;;;;4995490;28;20037;-54
2023/02/18 07:10:42;;;;;;;10.68;10.02;;;;;;;;;;4995855;28;20037;-55
2023/02/18 07:13:08;;;;;;;11.13;10.43;;;;;;;;;;4995659;28;20149;-53
2023/02/18 07:15:34;;;;;;;11.32;10.63;;;;;;;;;;4992189;28;20547;-54
2023/02/18 07:17:59;;;;;;;11.30;10.60;;;;;;;;;;4993851;28;20122;-51
2023/02/18 07:20:25;;;;;;;10.57;9.98;;;;;;;;;;4990146;28;20042;-50
2023/02/18 07:22:51;;;;;;;10.93;10.25;;;;;;;;;;4991582;28;20034;-51
2023/02/18 07:25:16;;;;;;;10.73;10.07;;;;;;;;;;4992598;28;20037;-54
2023/02/18 07:27:42;;;;;;;12.18;11.38;;;;;;;;;;4994799;28;20093;-54
2023/02/18 07:30:07;;;;;;;10.70;10.00;;;;;;;;;;4992466;28;20576;-54
2023/02/18 07:32:33;;;;;;;12.70;11.90;;;;;;;;;;4993888;28;20042;-53
2023/02/18 07:34:58;;;;;;;12.75;12.00;;;;;;;;;;4994580;28;20121;-55
2023/02/18 07:37:24;;;;;;;11.80;11.10;;;;;;;;;;4994423;28;20175;-54
2023/02/18 07:39:49;;;;;;;12.38;11.57;;;;;;;;;;4991535;28;20034;-54
2023/02/18 07:42:15;;;;;;;10.95;10.25;;;;;;;;;;4997527;28;20386;-54
2023/02/18 07:44:41;;;;;;;10.75;9.95;;;;;;;;;;4999219;28;20034;-54
2023/02/18 07:47:07;;;;;;;11.30;10.60;;;;;;;;;;5001326;28;20472;-54
2023/02/18 07:49:33;;;;;;;10.10;9.50;;;;;;;;;;4994785;28;20478;-54
2023/02/18 07:51:59;;;;;;;11.63;10.90;;;;;;;;;;4999959;28;20048;-52
2023/02/18 07:54:25;;;;;;;11.00;10.30;;;;;;;;;;4997366;28;20038;-55
2023/02/18 07:56:51;;;;;;;11.10;10.40;;;;;;;;;;4996959;28;20442;-55
2023/02/18 07:59:16;;;;;;;11.45;10.75;;;;;;;;;;4994790;28;20537;-55
2023/02/18 08:01:42;;;;;;;12.40;11.43;;;;;;;;;;4997416;28;20030;-53
2023/02/18 08:04:08;;;;;;;10.40;9.80;;;;;;;;;;4996163;28;20133;-54
2023/02/18 08:06:36;;;;;;;11.20;10.50;;;;;;;;;;4995532;28;20040;-54
2023/02/18 08:09:02;;;;;;;11.50;10.75;;;;;;;;;;4998017;28;20042;-54
2023/02/18 08:11:28;;;;;;;11.70;11.00;;;;;;;;;;4996137;28;20038;-55
2023/02/18 08:13:53;;;;;;;11.50;10.80;;;;;;;;;;4996261;28;20052;-54
2023/02/18 08:16:20;;;;;;;11.43;10.73;;;;;;;;;;4997878;28;20092;-54
2023/02/18 08:18:49;;;;;;;11.35;10.65;;;;;;;;;;4995144;28;20042;-54
2023/02/18 08:21:16;;;;;;;12.50;11.60;;;;;;;;;;4996735;28;20052;-56
2023/02/18 08:23:42;;;;;;;10.60;9.90;;;;;;;;;;4997024;28;20033;-55
2023/02/18 08:26:07;;;;;;;10.82;10.15;;;;;;;;;;4995910;28;20709;-56
2023/02/18 08:28:33;;;;;;;11.23;10.52;;;;;;;;;;4996694;28;20038;-54
2023/02/18 08:30:58;;;;;;;13.38;12.18;;;;;;;;;;4997012;28;20034;-55
2023/02/18 08:33:24;;;;;;;10.77;10.07;;;;;;;;;;4995993;28;20113;-55
2023/02/18 08:35:52;;;;;;;11.05;10.35;;;;;;;;;;4994321;28;20022;-55
2023/02/18 08:38:17;;;;;;;10.63;9.93;;;;;;;;;;4997259;28;20128;-55
2023/02/18 08:40:43;;;;;;;12.15;11.45;;;;;;;;;;4996563;28;20498;-56
2023/02/18 08:43:09;;;;;;;11.75;11.05;;;;;;;;;;4996476;28;20038;-55
2023/02/18 08:45:37;;;;;;;10.70;10.10;;;;;;;;;;4990590;28;20476;-57
2023/02/18 08:48:03;;;;;;;11.60;10.90;;;;;;;;;;4993949;28;20788;-56
2023/02/18 08:50:28;;;;;;;10.73;10.02;;;;;;;;;;4995029;28;20038;-57
2023/02/18 08:52:55;;;;;;;11.05;10.35;;;;;;;;;;4993338;28;20040;-56
2023/02/18 08:55:20;;;;;;;11.40;10.68;;;;;;;;;;4995386;28;20042;-56
2023/02/18 08:57:47;;;;;;;11.60;10.90;;;;;;;;;;4995607;28;20041;-56
2023/02/18 09:00:14;;;;;;;11.35;10.65;;;;;;;;;;4999374;28;20169;-56
2023/02/18 09:02:39;;;;;;;10.75;10.05;;;;;;;;;;4996894;28;20475;-56
2023/02/18 09:05:05;;;;;;;11.93;11.23;;;;;;;;;;4994691;28;20040;-56
2023/02/18 09:07:30;;;;;;;13.25;12.35;;;;;;;;;;4993266;28;20486;-57
2023/02/18 09:09:56;;;;;;;11.73;11.02;;;;;;;;;;4995337;28;20116;-56
2023/02/18 09:12:21;;;;;;;12.32;11.55;;;;;;;;;;4997240;28;20480;-56
2023/02/18 09:14:47;;;;;;;12.55;11.75;;;;;;;;;;4997300;28;21317;-56
2023/02/18 09:17:12;;;;;;;11.48;10.68;;;;;;;;;;4995491;28;20464;-56
2023/02/18 09:19:38;;;;;;;11.55;10.85;;;;;;;;;;4997522;28;20049;-55
2023/02/18 09:22:03;;;;;;;11.57;10.88;;;;;;;;;;4996659;28;20513;-56
2023/02/18 09:24:29;;;;;;;11.57;10.88;;;;;;;;;;4978902;28;20031;-56
2023/02/18 09:26:54;;;;;;;12.00;11.30;;;;;;;;;;4997734;28;20638;-57
2023/02/18 09:29:20;;;;;;;11.40;10.70;;;;;;;;;;4994781;28;20061;-56
2023/02/18 09:31:45;;;;;;;11.73;11.02;;;;;;;;;;4994466;28;20042;-56
2023/02/18 09:34:11;;;;;;;11.57;10.88;;;;;;;;;;4998350;28;20046;-57
2023/02/18 09:36:38;;;;;;;11.55;10.85;;;;;;;;;;4994978;28;20127;-56
2023/02/18 09:39:04;;;;;;;11.43;10.73;;;;;;;;;;4996639;28;20092;-56
2023/02/18 09:41:41;;;;;;;12.07;11.38;;;;;;;;;;4996209;28;20096;-56
2023/02/18 09:44:24;;;;;;;11.68;10.98;;;;;;;;;;4995315;28;20104;-56
2023/02/18 09:46:55;;;;;;;11.13;10.43;;;;;;;;;;4994352;28;20042;-56
2023/02/18 09:49:25;;;;;;;11.80;11.02;;;;;;;;;;4994609;28;20046;-57
2023/02/18 09:51:51;;;;;;;12.18;11.48;;;;;;;;;;5001796;28;20038;-57
2023/02/18 09:54:18;;;;;;;12.60;11.90;;;;;;;;;;4994143;28;20328;-57
2023/02/18 09:56:45;;;;;;;11.38;10.68;;;;;;;;;;4996747;28;20038;-56
2023/02/18 09:59:16;;;;;;;11.45;10.75;;;;;;;;;;4997706;28;20117;-58
2023/02/18 10:01:42;;;;;;;11.60;10.90;;;;;;;;;;4992982;28;20049;-51
2023/02/18 10:04:17;;;;;;;11.52;10.82;;;;;;;;;;4995001;28;20516;-55
2023/02/18 10:06:43;;;;;;;12.07;11.38;;;;;;;;;;4992409;28;20091;-55
2023/02/18 10:09:32;;;;;;;11.38;10.68;;;;;;;;;;4995600;28;20065;-52
2023/02/18 10:12:10;;;;;;;11.00;10.30;;;;;;;;;;4994956;28;20049;-52
2023/02/18 10:14:37;;;;;;;10.88;10.20;;;;;;;;;;4992513;28;20216;-49
2023/02/18 10:17:03;;;;;;;11.63;10.93;;;;;;;;;;4996630;28;20053;-51
2023/02/18 10:19:33;;;;;;;11.43;10.73;;;;;;;;;;4993627;28;20108;-48
2023/02/18 10:22:01;;;;;;;11.82;11.13;;;;;;;;;;4994726;28;20034;-51
2023/02/18 10:24:34;;;;;;;12.07;11.38;;;;;;;;;;4991587;28;20124;-48
2023/02/18 10:27:02;;;;;;;11.60;10.90;;;;;;;;;;5002438;28;20029;-52
2023/02/18 10:29:31;;;;;;;11.45;10.75;;;;;;;;;;4992538;28;20041;-51
2023/02/18 10:32:18;;;;;;;11.57;10.88;;;;;;;;;;4992613;28;20034;-54
2023/02/18 10:34:50;;;;;;;11.65;10.95;;;;;;;;;;4994124;28;20037;-55
2023/02/18 10:37:21;;;;;;;11.85;11.15;;;;;;;;;;4991967;28;20030;-52
2023/02/18 10:40:03;;;;;;;11.25;10.55;;;;;;;;;;4994835;28;20102;-53
2023/02/18 10:42:52;;;;;;;11.20;10.50;;;;;;;;;;4994900;28;20037;-52
2023/02/18 10:45:45;;;;;;;11.13;10.43;;;;;;;;;;4977979;28;20085;-55
2023/02/18 10:48:30;;;;;;;12.10;11.20;;;;;;;;;;4993614;28;20062;-54
2023/02/18 10:50:58;;;;;;;11.02;10.32;;;;;;;;;;4986661;28;20117;-51
2023/02/18 10:53:34;;;;;;;10.82;10.20;;;;;;;;;;4992609;28;20049;-53
2023/02/18 10:55:59;;;;;;;11.02;10.35;;;;;;;;;;4992015;28;20151;-57
2023/02/18 10:58:41;;;;;;;11.30;10.60;;;;;;;;;;4994975;28;20437;-57
2023/02/18 11:01:14;;;;;;;11.25;10.55;;;;;;;;;;4992000;28;20088;-57
2023/02/18 11:03:45;;;;;;;12.40;11.70;;;;;;;;;;4995251;28;20532;-57
2023/02/18 11:06:26;;;;;;;10.48;9.88;;;;;;;;;;4993350;28;20101;-51
2023/02/18 11:08:53;;;;;;;11.32;10.63;;;;;;;;;;4993123;28;20404;-58
2023/02/18 11:11:30;;;;;;;13.02;12.23;;;;;;;;;;4992752;28;20843;-57
2023/02/18 11:13:59;;;;;;;11.15;10.45;;;;;;;;;;4996080;28;20091;-57
2023/02/18 11:16:37;;;;;;;10.40;9.80;;;;;;;;;;4992478;28;20457;-52
2023/02/18 11:19:03;;;;;;;10.73;10.13;;;;;;;;;;4995922;28;20030;-51
2023/02/18 11:21:33;;;;;;;10.75;10.15;;;;;;;;;;4995500;28;20034;-50
2023/02/18 11:24:07;;;;;;;10.60;10.00;;;;;;;;;;4994963;28;20056;-50
2023/02/18 11:26:35;;;;;;;12.30;11.50;;;;;;;;;;4991392;28;20471;-53
2023/02/18 11:29:13;;;;;;;11.00;10.30;;;;;;;;;;4996063;28;20046;-54
2023/02/18 11:31:42;;;;;;;11.00;10.07;;;;;;;;;;4993902;28;20400;-54
2023/02/18 11:34:25;;;;;;;11.38;10.68;;;;;;;;;;4995514;28;20037;-51
2023/02/18 11:36:51;;;;;;;11.77;11.07;;;;;;;;;;4994693;28;21587;-51
2023/02/18 11:39:26;;;;;;;11.63;10.93;;;;;;;;;;4993039;28;20042;-54
2023/02/18 11:42:00;;;;;;;10.25;9.65;;;;;;;;;;4993160;28;20041;-51
2023/02/18 11:44:33;;;;;;;11.75;11.05;;;;;;;;;;4993566;28;20392;-51
2023/02/18 11:47:18;;;;;;;10.45;9.85;;;;;;;;;;4995695;28;20065;-52
2023/02/18 11:49:59;;;;;;;11.43;10.73;;;;;;;;;;4991040;28;20169;-53
2023/02/18 11:52:36;;;;;;;10.95;10.27;;;;;;;;;;4990180;28;20034;-52
2023/02/18 11:55:13;;;;;;;10.30;9.70;;;;;;;;;;4993980;28;20048;-51
2023/02/18 11:57:43;;;;;;;11.85;11.15;;;;;;;;;;4991918;28;20033;-55
2023/02/18 12:00:20;;;;;;;11.75;11.02;;;;;;;;;;4992253;28;20368;-53
2023/02/18 12:02:46;;;;;;;11.23;10.23;;;;;;;;;;4989880;28;20093;-53
2023/02/18 12:05:26;;;;;;;10.70;10.07;;;;;;;;;;4990807;28;20034;-52
2023/02/18 12:07:58;;;;;;;11.10;10.40;;;;;;;;;;4983524;28;20038;-53
2023/02/18 12:10:47;;;;;;;11.00;10.30;;;;;;;;;;4993812;28;20068;-51
2023/02/18 12:13:34;;;;;;;10.55;9.93;;;;;;;;;;4992267;28;20034;-53
2023/02/18 12:16:32;;;;;;;10.90;10.23;;;;;;;;;;4992249;28;20038;-50
2023/02/18 12:19:33;;;;;;;11.30;10.60;;;;;;;;;;4990268;28;20050;-54
2023/02/18 12:22:31;;;;;;;10.73;10.10;;;;;;;;;;4990929;28;20068;-55
2023/02/18 12:25:13;;;;;;;10.40;9.80;;;;;;;;;;4988916;28;20088;-54
2023/02/18 12:27:54;;;;;;;12.27;11.57;;;;;;;;;;4994537;28;20066;-54
2023/02/18 12:30:38;;;;;;;10.53;9.93;;;;;;;;;;4997899;28;20097;-50
2023/02/18 12:33:22;;;;;;;11.45;10.75;;;;;;;;;;4995793;28;20049;-51
2023/02/18 12:36:06;;;;;;;11.07;10.38;;;;;;;;;;4994771;28;20116;-48
2023/02/18 12:38:50;;;;;;;11.98;11.27;;;;;;;;;;4995935;28;20025;-54
2023/02/18 12:41:21;;;;;;;10.25;9.65;;;;;;;;;;4997819;28;20038;-54
2023/02/18 12:43:58;;;;;;;;;;;;;;;;;;4995064;28;20356;-54
2023/02/18 12:46:57;;;;;;;10.55;9.95;;;;;;;;;;4995606;28;19917;-54
2023/02/18 12:49:52;;;;;;;10.75;10.13;;;;;;;;;;4994417;28;20468;-52
2023/02/18 12:52:54;;;;;;;10.63;9.93;;;;;;;;;;4988923;28;20050;-52
2023/02/18 12:55:40;;;;;;;11.20;10.50;;;;;;;;;;4994061;28;20420;-54
2023/02/18 12:58:33;;;;;;;10.95;10.25;;;;;;;;;;4993943;28;20042;-53
2023/02/18 13:01:37;;;;;;;10.90;10.23;;;;;;;;;;4991442;28;20034;-54
2023/02/18 13:04:23;;;;;;;9.98;9.38;;;;;;;;;;4981236;28;20049;-54
2023/02/18 13:07:19;;;;;;;10.85;10.20;;;;;;;;;;4995940;28;20126;-54
2023/02/18 13:10:19;;;;;;;13.13;11.00;;;;;;;;;;4995332;28;20046;-52
2023/02/18 13:13:00;;;;;;;11.25;10.55;;;;;;;;;;4994335;28;20365;-50
2023/02/18 13:15:41;;;;;;;11.25;10.52;;;;;;;;;;4994885;28;20073;-52
2023/02/18 13:18:14;;;;;;;10.85;10.20;;;;;;;;;;4996176;28;20345;-52
2023/02/18 13:20:50;;;;;;;11.07;10.38;;;;;;;;;;4993393;28;20875;-52
2023/02/18 13:23:21;;;;;;;10.23;9.63;;;;;;;;;;4997838;28;20069;-54
2023/02/18 13:25:50;;;;;;;10.65;9.98;;;;;;;;;;4995819;28;20427;-53
2023/02/18 13:28:21;;;;;;;11.00;10.32;;;;;;;;;;4996899;28;20197;-51
2023/02/18 13:30:57;;;;;;;11.48;10.77;;;;;;;;;;4995214;28;20088;-53
2023/02/18 13:33:40;;;;;;;11.32;10.63;;;;;;;;;;4995177;28;20033;-53
2023/02/18 13:36:32;;;;;;;11.25;10.55;;;;;;;;;;4993380;28;20035;-52
2023/02/18 13:39:06;;;;;;;10.88;10.18;;;;;;;;;;4995552;28;20059;-54
2023/02/18 13:41:41;;;;;;;11.50;10.80;;;;;;;;;;4992701;28;20069;-54
2023/02/18 13:44:29;;;;;;;10.45;9.85;;;;;;;;;;4997803;28;20049;-54
2023/02/18 13:46:57;;;;;;;11.90;11.20;;;;;;;;;;4993472;28;20387;-52
2023/02/18 13:49:23;;;;;;;12.27;11.48;;;;;;;;;;4993317;28;20046;-53
2023/02/18 13:51:50;;;;;;;11.18;10.48;;;;;;;;;;4991856;28;20120;-51
2023/02/18 13:54:28;;;;;;;10.85;9.98;;;;;;;;;;4996167;28;20065;-53
2023/02/18 13:56:59;;;;;;;11.25;10.55;;;;;;;;;;4994765;28;20041;-54
2023/02/18 13:59:25;;;;;;;11.50;10.75;;;;;;;;;;4993468;28;20108;-53
2023/02/18 14:01:51;;;;;;;12.82;11.57;;;;;;;;;;4996349;28;20026;-52
2023/02/18 14:04:38;;;;;;;10.80;10.10;;;;;;;;;;4997095;28;20053;-53
2023/02/18 14:07:32;;;;;;;11.05;10.35;;;;;;;;;;5004749;28;20038;-51
2023/02/18 14:09:59;;;;;;;10.82;10.13;;;;;;;;;;4995453;28;20527;-52
2023/02/18 14:12:36;;;;;;;12.48;11.68;;;;;;;;;;4996623;28;20449;-52
2023/02/18 14:15:21;;;;;;;10.55;9.85;;;;;;;;;;5012298;28;20050;-54
2023/02/18 14:17:57;;;;;;;10.75;10.05;;;;;;;;;;4995586;28;20061;-52
2023/02/18 14:20:35;;;;;;;11.48;10.77;;;;;;;;;;4995290;28;20484;-53
2023/02/18 14:23:11;;;;;;;10.98;10.27;;;;;;;;;;4995870;28;20514;-53
2023/02/18 14:25:39;;;;;;;10.82;10.20;;;;;;;;;;4994715;28;20034;-52
2023/02/18 14:28:33;;;;;;;11.65;10.95;;;;;;;;;;4993247;28;20409;-50
2023/02/18 14:31:01;;;;;;;11.00;10.30;;;;;;;;;;4995516;28;20345;-51
2023/02/18 14:33:30;;;;;;;10.65;9.98;;;;;;;;;;4981874;28;20041;-58
2023/02/18 14:36:08;;;;;;;11.52;10.80;;;;;;;;;;4992804;28;20053;-50
2023/02/18 14:38:42;;;;;;;11.18;10.48;;;;;;;;;;4994641;28;20594;-54
2023/02/18 14:41:27;;;;;;;11.73;11.02;;;;;;;;;;4994337;28;20149;-56